createdAt,value
2022-07-30T00:02:35.467Z,84.63
2022-07-30T00:07:38.142Z,86.44
2022-07-30T00:12:42.022Z,92.18
2022-07-30T00:17:46.741Z,100.00
2022-07-30T00:22:51.659Z,100.00
2022-07-30T00:27:55.611Z,99.23
2022-07-30T00:32:58.147Z,93.65
2022-07-30T00:38:00.845Z,100.00
2022-07-30T00:43:05.006Z,100.00
2022-07-30T00:48:07.505Z,100.00
2022-07-30T00:53:10.542Z,100.00
2022-07-30T00:58:14.378Z,100.00
2022-07-30T01:03:17.023Z,97.76
2022-07-30T01:08:19.626Z,95.50
2022-07-30T01:13:23.435Z,91.38
2022-07-30T01:18:47.945Z,89.62
2022-07-30T01:23:54.436Z,89.82
2022-07-30T01:29:00.537Z,91.32
2022-07-30T01:34:04.283Z,100.00
2022-07-30T01:39:08.252Z,100.00
2022-07-30T01:44:14.615Z,100.00
2022-07-30T01:49:28.593Z,100.00
2022-07-30T01:54:32.778Z,100.00
2022-07-30T01:59:37.489Z,98.82
2022-07-30T02:04:39.875Z,97.27
2022-07-30T02:09:49.923Z,95.96
2022-07-30T02:14:57.749Z,97.50
2022-07-30T02:20:03.062Z,96.20
2022-07-30T02:25:11.525Z,96.17
2022-07-30T02:30:16.809Z,97.94
2022-07-30T02:35:22.204Z,94.48
2022-07-30T02:40:25.037Z,91.57
2022-07-30T02:45:31.591Z,91.47
2022-07-30T02:50:35.082Z,91.87
2022-07-30T02:55:39.821Z,94.52
2022-07-30T03:00:44.488Z,92.62
2022-07-30T03:05:50.051Z,94.40
2022-07-30T03:10:54.811Z,94.57
2022-07-30T03:16:00.251Z,95.39
2022-07-30T03:21:06.995Z,95.23
2022-07-30T03:26:10.423Z,97.42
2022-07-30T03:31:15.387Z,96.61
2022-07-30T03:36:19.223Z,93.59
2022-07-30T03:41:23.543Z,90.51
2022-07-30T03:46:28.689Z,93.49
2022-07-30T03:51:33.114Z,90.61
2022-07-30T03:56:36.469Z,90.16
2022-07-30T04:01:40.461Z,92.19
2022-07-30T04:06:43.152Z,88.92
2022-07-30T04:11:45.860Z,90.82
2022-07-30T04:16:55.987Z,90.94
2022-07-30T04:22:01.835Z,90.41
2022-07-30T04:27:04.782Z,90.77
2022-07-30T04:32:10.241Z,91.70
2022-07-30T04:37:12.910Z,91.72
2022-07-30T04:42:15.401Z,94.14
2022-07-30T04:47:20.280Z,91.72
2022-07-30T04:52:23.725Z,89.76
2022-07-30T04:57:28.452Z,90.31
2022-07-30T05:02:35.706Z,87.29
2022-07-30T05:07:38.917Z,88.05
2022-07-30T05:12:41.528Z,88.83
2022-07-30T05:17:45.958Z,86.34
2022-07-30T05:22:50.903Z,88.74
2022-07-30T05:27:53.911Z,93.60
2022-07-30T05:32:58.217Z,90.70
2022-07-30T05:38:03.933Z,91.02
2022-07-30T05:43:06.807Z,91.21
2022-07-30T05:48:11.155Z,89.03
2022-07-30T05:53:13.600Z,91.91
2022-07-30T05:58:16.193Z,90.85
2022-07-30T06:03:20.013Z,88.78
2022-07-30T06:08:22.553Z,88.54
2022-07-30T06:13:25.004Z,86.97
2022-07-30T06:18:28.852Z,90.10
2022-07-30T06:23:31.269Z,90.74
2022-07-30T06:28:38.540Z,88.67
2022-07-30T06:33:43.104Z,89.99
2022-07-30T06:38:45.624Z,91.65
2022-07-30T06:43:48.113Z,93.08
2022-07-30T06:48:51.921Z,92.44
2022-07-30T06:53:54.486Z,90.77
2022-07-30T06:58:56.939Z,94.41
2022-07-30T07:04:00.788Z,94.28
2022-07-30T07:09:03.679Z,94.35
2022-07-30T07:14:06.139Z,91.64
2022-07-30T07:19:09.999Z,89.75
2022-07-30T07:24:16.025Z,86.55
2022-07-30T07:29:18.596Z,86.26
2022-07-30T07:34:22.602Z,83.79
2022-07-30T07:39:25.184Z,87.23
2022-07-30T07:44:29.856Z,83.21
2022-07-30T07:49:33.828Z,83.20
2022-07-30T07:54:36.304Z,82.29
2022-07-30T07:59:41.079Z,82.59
2022-07-30T08:04:46.541Z,82.69
2022-07-30T08:09:48.963Z,82.52
2022-07-30T08:14:51.404Z,80.63
2022-07-30T08:19:58.849Z,79.02
2022-07-30T08:25:01.325Z,77.75
2022-07-30T08:30:08.122Z,77.42
2022-07-30T08:35:12.013Z,75.68
2022-07-30T08:40:14.394Z,75.34
2022-07-30T08:45:18.199Z,73.75
2022-07-30T08:50:22.487Z,74.46
2022-07-30T08:55:26.024Z,75.05
2022-07-30T09:00:28.545Z,76.10
2022-07-30T09:05:33.179Z,80.79
2022-07-30T09:10:35.819Z,84.71
2022-07-30T09:15:39.915Z,86.69
2022-07-30T09:20:43.968Z,85.51
2022-07-30T09:25:48.140Z,85.54
2022-07-30T09:30:55.573Z,87.20
2022-07-30T09:35:59.595Z,88.16
2022-07-30T09:41:08.048Z,87.62
2022-07-30T09:46:19.889Z,85.94
2022-07-30T09:51:54.719Z,83.56
2022-07-30T09:57:23.154Z,82.66
2022-07-30T10:02:33.310Z,82.18
2022-07-30T10:07:42.886Z,79.31
2022-07-30T10:12:47.223Z,78.52
2022-07-30T10:17:51.915Z,77.61
2022-07-30T10:22:56.133Z,74.79
2022-07-30T10:28:00.911Z,76.80
2022-07-30T10:33:08.498Z,79.41
2022-07-30T10:38:39.380Z,81.73
2022-07-30T10:43:56.473Z,82.51
2022-07-30T10:49:11.758Z,83.73
2022-07-30T10:54:40.211Z,88.12
2022-07-30T11:00:15.199Z,91.28
2022-07-30T11:05:45.192Z,91.20
2022-07-30T11:10:49.995Z,86.28
2022-07-30T11:15:54.442Z,87.25
2022-07-30T11:21:21.370Z,84.92
2022-07-30T11:32:29.563Z,84.66
2022-07-30T11:38:01.954Z,80.81
2022-07-30T11:43:18.100Z,80.07
2022-07-30T11:48:22.216Z,79.96
2022-07-30T11:53:24.786Z,81.02
2022-07-30T11:58:29.763Z,80.04
2022-07-30T12:03:33.932Z,80.34
2022-07-30T12:08:44.000Z,79.27
2022-07-30T12:13:56.739Z,78.61
2022-07-30T12:19:03.842Z,79.19
2022-07-30T12:24:09.805Z,80.62
2022-07-30T12:29:13.801Z,81.25
2022-07-30T12:34:23.962Z,76.44
2022-07-30T12:39:27.828Z,78.91
2022-07-30T12:44:38.660Z,85.49
2022-07-30T12:49:48.791Z,83.69
2022-07-30T12:54:59.783Z,81.32
2022-07-30T13:00:03.810Z,80.77
2022-07-30T13:05:10.554Z,81.54
2022-07-30T13:10:18.724Z,80.94
2022-07-30T13:15:21.791Z,79.37
2022-07-30T13:20:25.644Z,78.84
2022-07-30T13:25:28.224Z,76.71
2022-07-30T13:30:42.893Z,74.56
2022-07-30T13:35:47.033Z,76.26
2022-07-30T13:40:49.663Z,76.74
2022-07-30T13:45:53.573Z,75.62
2022-07-30T13:51:05.572Z,77.81
2022-07-30T13:56:12.525Z,77.80
2022-07-30T14:01:17.964Z,75.34
2022-07-30T14:06:22.330Z,74.40
2022-07-30T14:11:25.503Z,74.47
2022-07-30T14:16:44.684Z,76.70
2022-07-30T14:21:49.161Z,75.23
2022-07-30T14:26:58.608Z,72.73
2022-07-30T14:32:01.281Z,74.48
2022-07-30T14:37:05.397Z,74.94
2022-07-30T14:42:09.447Z,74.96
2022-07-30T14:47:11.928Z,75.55
2022-07-30T14:52:15.720Z,77.23
2022-07-30T14:57:18.181Z,78.88
2022-07-30T15:07:24.438Z,74.93
2022-07-30T15:12:27.773Z,73.20
2022-07-30T15:17:30.946Z,74.54
2022-07-30T15:22:34.729Z,76.38
2022-07-30T15:27:37.589Z,76.01
2022-07-30T15:32:40.107Z,74.31
2022-07-30T15:37:44.151Z,77.75
2022-07-30T15:42:46.824Z,75.30
2022-07-30T15:47:49.261Z,78.07
2022-07-30T15:52:54.097Z,78.75
2022-07-30T15:57:56.751Z,76.99
2022-07-30T16:03:00.229Z,75.99
2022-07-30T16:08:04.015Z,76.49
2022-07-30T16:13:06.897Z,77.28
2022-07-30T16:18:09.378Z,77.95
2022-07-30T16:23:15.964Z,77.35
2022-07-30T16:28:20.777Z,79.23
2022-07-30T16:33:23.274Z,79.86
2022-07-30T16:38:27.199Z,78.72
2022-07-30T16:43:31.773Z,79.35
2022-07-30T16:48:34.659Z,78.23
2022-07-30T16:53:38.603Z,76.97
2022-07-30T16:58:40.965Z,76.62
2022-07-30T17:03:43.629Z,77.23
2022-07-30T17:08:47.628Z,78.90
2022-07-30T17:13:51.332Z,79.97
2022-07-30T17:18:53.795Z,77.94
2022-07-30T17:23:57.619Z,76.21
2022-07-30T17:29:00.156Z,76.08
2022-07-30T17:34:02.616Z,74.57
2022-07-30T17:39:06.926Z,74.22
2022-07-30T17:44:09.672Z,75.28
2022-07-30T17:49:12.370Z,74.93
2022-07-30T17:54:16.221Z,74.48
2022-07-30T17:59:19.180Z,74.06
2022-07-30T18:04:21.846Z,71.44
2022-07-30T18:09:25.725Z,76.17
2022-07-30T18:14:28.437Z,78.82
2022-07-30T18:19:31.019Z,80.63
2022-07-30T18:24:40.326Z,82.66
2022-07-30T18:29:43.252Z,83.65
2022-07-30T18:34:45.736Z,84.66
2022-07-30T18:39:49.667Z,85.48
2022-07-30T18:44:52.228Z,87.87
2022-07-30T18:49:55.977Z,87.11
2022-07-30T18:54:59.862Z,91.95
2022-07-30T19:00:02.924Z,93.14
2022-07-30T19:05:07.936Z,95.22
2022-07-30T19:10:13.323Z,97.02
2022-07-30T19:15:15.846Z,100.00
2022-07-30T19:20:18.867Z,100.00
2022-07-30T19:25:23.015Z,100.00
2022-07-30T19:30:25.840Z,100.00
2022-07-30T19:35:28.341Z,96.98
2022-07-30T19:40:32.259Z,99.96
2022-07-30T19:45:46.909Z,95.59
2022-07-30T19:50:50.795Z,95.18
2022-07-30T19:55:54.591Z,94.06
2022-07-30T20:00:57.895Z,95.77
2022-07-30T20:06:00.741Z,95.01
2022-07-30T20:11:07.154Z,96.00
2022-07-30T20:16:12.079Z,100.00
2022-07-30T20:21:16.013Z,98.97
2022-07-30T20:26:20.553Z,94.92
2022-07-30T20:31:22.980Z,96.44
2022-07-30T20:36:28.895Z,100.00
2022-07-30T20:41:32.752Z,100.00
2022-07-30T20:46:36.347Z,100.00
2022-07-30T20:51:41.632Z,100.00
2022-07-30T20:56:45.708Z,100.00
2022-07-30T21:01:49.619Z,100.00
2022-07-30T21:06:53.670Z,100.00
2022-07-30T21:11:57.662Z,98.57
2022-07-30T21:17:03.043Z,97.44
2022-07-30T21:22:06.129Z,100.00
2022-07-30T21:27:10.765Z,100.00
2022-07-30T21:32:15.878Z,100.00
2022-07-30T21:37:20.961Z,100.00
2022-07-30T21:42:30.157Z,100.00
2022-07-30T21:47:33.338Z,100.00
2022-07-30T21:52:36.027Z,98.23
2022-07-30T21:57:39.789Z,97.84
2022-07-30T22:02:52.628Z,96.09
2022-07-30T22:07:56.478Z,94.25
2022-07-30T22:13:00.573Z,94.05
2022-07-30T22:18:03.547Z,94.65
2022-07-30T22:23:07.315Z,97.89
2022-07-30T22:28:12.465Z,95.95
2022-07-30T22:33:17.736Z,98.51
2022-07-30T22:38:20.438Z,97.07
2022-07-30T22:43:26.991Z,94.28
2022-07-30T22:48:40.669Z,100.00
2022-07-30T22:54:03.461Z,100.00
2022-07-30T22:59:07.177Z,100.00
2022-07-30T23:04:09.919Z,95.97
2022-07-30T23:09:12.728Z,97.99
2022-07-30T23:14:16.509Z,98.98
2022-07-30T23:19:22.109Z,94.90
2022-07-30T23:24:24.856Z,96.43
2022-07-30T23:29:29.395Z,94.37
2022-07-30T23:34:32.105Z,94.12
2022-07-30T23:39:34.573Z,95.49
2022-07-30T23:44:38.628Z,98.58
2022-07-30T23:49:41.091Z,97.26
2022-07-30T23:54:43.559Z,97.43
2022-07-30T23:59:47.386Z,96.17
